Latest Weather Observations for Cape Jaffa

IDS60801

Issued at 1:01 pm CST Wednesday 27 May 2015 (issued every 30 minutes, with the page automatically refreshed every 10 minutes)

About weather observations | Map of weather stations | Latest weather observations for SA | Other Formats
Station Details ID: 026095 Name: THE LIMESTONE Lat: -36.97 Lon: 139.72 Height: 17.0 m
Data from the previous 72 hours. | See also: Recent months at Cape Jaffa
Date/Time
CST
Temp
°C
App
Temp
°C
Dew
Point
Rel
Hum
%
Delta-T
°C
Wind Press
QNH
hPa
Press
MSL
hPa
Rain
since 9 am
mm
Dir
 
Spd
km/h
Gust
km/h
Spd
kts
Gust
kts
27/01:00pm 15.7 12.1 13.0 84 1.5 NNW 24 32 13 17 1017.3 1017.3 0.0
27/12:30pm 16.6 12.5 13.7 83 1.6 NNW 28 35 15 19 1017.7 1017.7 0.0
27/12:00pm 16.8 13.1 13.9 83 1.6 NNW 26 33 14 18 1018.0 1018.0 0.0
27/11:30am 15.9 11.7 13.4 85 1.4 NNW 28 35 15 19 1018.4 1018.4 0.0
27/11:00am 16.2 12.9 13.9 86 1.3 NNW 24 32 13 17 1018.8 1018.8 0.0
27/10:30am 16.3 12.9 13.8 85 1.4 NNW 24 32 13 17 1018.8 1018.8 0.0
27/10:00am 15.9 13.2 13.4 85 1.4 NNW 20 26 11 14 1018.7 1018.7 0.0
27/09:30am 15.6 13.4 13.3 86 1.3 NW 17 24 9 13 1018.7 1018.7 0.0
27/09:00am 15.6 12.8 13.1 85 1.4 NW 20 26 11 14 1018.7 1018.7 0.0
27/08:30am 15.4 12.7 12.9 85 1.4 NW 19 28 10 15 1018.4 1018.4 0.0
27/08:00am 14.8 11.9 12.3 85 1.4 NW 19 26 10 14 1018.4 1018.4 0.0
27/07:30am 14.4 11.2 11.9 85 1.3 NW 20 26 11 14 1018.0 1018.0 0.0
27/07:00am 14.3 11.3 11.8 85 1.3 NW 19 24 10 13 1018.0 1018.0 0.0
27/06:30am 14.3 11.0 11.6 84 1.4 NW 20 30 11 16 1017.6 1017.6 0.0
27/06:00am 14.3 11.0 11.5 83 1.5 NW 20 26 11 14 1017.2 1017.2 0.0
27/05:30am 14.3 11.2 11.5 83 1.5 NW 19 24 10 13 1017.3 1017.3 0.0
27/05:00am 13.5 11.1 11.4 87 1.1 NNW 15 19 8 10 1017.4 1017.4 0.0
27/04:30am 13.6 11.1 11.1 85 1.3 NNW 15 19 8 10 1017.7 1017.7 0.0
27/04:00am 13.9 11.5 11.4 85 1.3 NW 15 19 8 10 1017.8 1017.8 0.0
27/03:30am 14.4 11.6 11.2 81 1.7 NW 17 22 9 12 1017.8 1017.8 0.0
27/03:00am 14.6 12.2 11.4 81 1.7 NW 15 20 8 11 1018.0 1018.0 0.0
27/02:30am 13.9 11.6 11.8 87 1.1 NNW 15 19 8 10 1018.3 1018.3 0.0
27/02:00am 14.0 11.7 11.7 86 1.2 NNW 15 20 8 11 1018.4 1018.4 0.0
27/01:30am 12.0 10.0 10.2 89 0.9 NNE 11 13 6 7 1018.7 1018.7 0.0
27/01:00am 11.7 10.0 9.9 89 0.9 NNE 9 11 5 6 1018.7 1018.7 0.0
27/12:30am 11.1 9.0 9.7 91 0.7 NE 11 13 6 7 1018.9 1018.9 0.0
27/12:00am 11.0 9.2 9.6 91 0.7 NE 9 11 5 6 1019.2 1019.2 0.0
 
Date/Time
CST
Temp
°C
App
Temp
°C
Dew
Point
Rel
Hum
%
Delta-T
°C
Wind Press
QNH
hPa
Press
MSL
hPa
Rain
since 9 am
mm
Dir
 
Spd
km/h
Gust
km/h
Spd
kts
Gust
kts
26/11:30pm 11.2 8.7 9.6 90 0.8 NE 13 15 7 8 1019.4 1019.4 0.0
26/11:00pm 12.1 10.5 10.3 89 0.9 NNE 9 13 5 7 1019.8 1019.8 0.0
26/10:30pm 12.8 12.0 10.9 88 1.0 NNE 6 7 3 4 1020.1 1020.1 0.0
26/10:00pm 12.7 11.3 10.8 88 1.0 NNE 9 9 5 5 1020.4 1020.4 0.0
26/09:30pm 12.9 12.0 10.8 87 1.1 NNE 6 7 3 4 1020.5 1020.5 0.0
26/09:00pm 12.5 11.5 10.2 86 1.2 NE 6 7 3 4 1020.6 1020.6 0.0
26/08:30pm 12.6 10.6 10.1 85 1.3 NNE 11 11 6 6 1020.9 1020.9 0.0
26/08:00pm 12.0 9.3 9.0 82 1.5 NNE 13 13 7 7 1020.8 1020.8 0.0
26/07:30pm 12.9 11.1 9.4 79 1.8 NNE 9 11 5 6 1020.7 1020.7 0.0
26/07:00pm 13.6 12.4 9.5 76 2.1 NNE 6 6 3 3 1020.9 1020.9 0.0
26/06:30pm 14.0 12.8 9.4 74 2.3 NNE 6 6 3 3 1020.8 1020.8 0.0
26/06:00pm 14.3 13.0 9.3 72 2.5 N 6 6 3 3 1020.8 1020.8 0.0
26/05:30pm 14.9 13.7 9.5 70 2.8 N 6 7 3 4 1020.9 1020.9 0.0
26/05:00pm 15.2 14.0 9.6 69 2.9 N 6 6 3 3 1020.8 1020.8 0.0
26/04:30pm 15.7 13.9 9.6 67 3.2 NNW 9 11 5 6 1021.0 1021.0 0.0
26/04:00pm 16.7 15.3 9.6 63 3.7 N 7 9 4 5 1021.0 1021.0 0.0
26/03:30pm 17.1 15.4 10.0 63 3.7 NNE 9 13 5 7 1021.2 1021.2 0.0
26/03:00pm 17.5 15.1 9.9 61 4.0 NE 13 15 7 8 1021.3 1021.3 0.0
26/02:30pm 17.2 13.9 9.6 61 4.0 NNE 17 20 9 11 1021.6 1021.6 0.0
26/02:00pm 17.4 13.7 9.3 59 4.2 NE 19 22 10 12 1021.8 1021.8 0.0
26/01:30pm 17.4 14.3 10.3 63 3.8 NE 17 20 9 11 1022.4 1022.4 0.0
26/01:00pm 17.6 14.4 9.8 60 4.1 NNE 17 24 9 13 1023.0 1023.0 0.0
26/12:30pm 17.1 14.7 10.2 64 3.6 ENE 13 17 7 9 1023.5 1023.5 0.0
26/12:00pm 15.7 13.1 10.7 72 2.6 ENE 15 17 8 9 1023.8 1023.8 0.0
26/11:30am 14.7 11.8 9.5 71 2.7 ENE 15 19 8 10 1024.5 1024.5 0.0
26/11:00am 13.4 10.4 9.1 75 2.2 E 15 19 8 10 1025.0 1025.0 0.0
26/10:30am 12.6 9.4 8.5 76 2.0 ENE 15 17 8 9 1025.6 1025.6 0.0
26/10:00am 11.2 7.3 7.3 77 1.9 ENE 17 22 9 12 1026.0 1026.0 0.0
26/09:30am 10.4 6.7 6.5 77 1.8 ENE 15 19 8 10 1026.2 1026.2 0.0
26/09:00am 9.4 5.6 5.9 79 1.6 E 15 17 8 9 1026.3 1026.3 0.0
26/08:30am 8.5 5.0 5.6 82 1.3 E 13 15 7 8 1026.6 1026.6 0.0
26/08:00am 7.0 3.3 4.3 83 1.2 E 13 15 7 8 1026.6 1026.6 0.0
26/07:30am 6.5 3.1 4.0 84 1.1 E 11 13 6 7 1026.5 1026.5 0.0
26/07:00am 6.8 2.3 4.3 84 1.1 ENE 17 17 9 9 1026.5 1026.5 0.0
26/06:30am 6.1 2.6 3.6 84 1.0 E 11 11 6 6 1026.4 1026.4 0.0
26/06:00am 6.8 3.4 3.9 82 1.2 E 11 13 6 7 1026.4 1026.4 0.0
26/05:30am 7.0 3.2 4.1 82 1.2 E 13 15 7 8 1026.4 1026.4 0.0
26/05:00am 6.7 2.9 3.9 82 1.2 ENE 13 13 7 7 1026.5 1026.5 0.0
26/04:30am 7.3 4.0 4.4 82 1.3 ENE 11 13 6 7 1026.6 1026.6 0.0
26/04:00am 7.8 4.5 4.7 81 1.4 E 11 11 6 6 1026.6 1026.6 0.0
26/03:30am 7.5 4.6 4.6 82 1.3 ENE 9 11 5 6 1026.7 1026.7 0.0
26/03:00am 7.6 4.4 4.9 83 1.2 ENE 11 15 6 8 1026.7 1026.7 0.0
26/02:30am 8.0 4.8 5.1 82 1.3 E 11 13 6 7 1026.9 1026.9 0.0
26/02:00am 7.8 4.2 4.9 82 1.3 ENE 13 15 7 8 1027.1 1027.1 0.0
26/01:30am 7.9 4.3 5.0 82 1.3 ENE 13 13 7 7 1027.2 1027.2 0.0
26/01:00am 8.5 5.3 5.3 80 1.4 ENE 11 13 6 7 1027.4 1027.4 0.0
26/12:30am 8.7 5.2 5.3 79 1.5 ENE 13 15 7 8 1027.6 1027.6 0.0
26/12:00am 9.0 5.5 5.4 78 1.6 E 13 13 7 7 1028.0 1028.0 0.0
 
Date/Time
CST
Temp
°C
App
Temp
°C
Dew
Point
Rel
Hum
%
Delta-T
°C
Wind Press
QNH
hPa
Press
MSL
hPa
Rain
since 9 am
mm
Dir
 
Spd
km/h
Gust
km/h
Spd
kts
Gust
kts
25/11:30pm 9.7 6.3 5.7 76 1.8 E 13 15 7 8 1028.3 1028.3 0.0
25/11:00pm 9.6 6.2 5.8 77 1.7 E 13 15 7 8 1028.3 1028.3 0.0
25/10:30pm 9.8 6.3 5.6 75 1.9 E 13 15 7 8 1028.1 1028.1 0.0
25/10:00pm 9.5 6.1 5.9 78 1.7 ESE 13 15 7 8 1028.1 1028.1 0.0
25/09:30pm 10.0 7.0 6.0 76 1.8 ESE 11 13 6 7 1028.1 1028.1 0.0
25/09:00pm 10.2 7.2 6.2 76 1.8 SE 11 13 6 7 1028.2 1028.2 0.0
25/08:30pm 10.7 7.7 6.1 73 2.1 ESE 11 11 6 6 1028.2 1028.2 0.0
25/08:00pm 10.7 7.6 5.7 71 2.3 SE 11 13 6 7 1028.2 1028.2 0.0
25/07:30pm 11.5 8.8 5.4 66 2.8 ESE 9 11 5 6 1028.2 1028.2 0.0
25/07:00pm 12.4 10.0 5.3 62 3.3 SE 7 9 4 5 1028.0 1028.0 0.0
25/06:30pm 13.5 12.5 5.7 59 3.7 CALM 0 0 0 0 1028.0 1028.0 0.0
25/06:00pm 13.2 12.4 6.3 63 3.3 CALM 0 0 0 0 1027.8 1027.8 0.0
25/05:30pm 13.7 12.8 6.1 60 3.6 CALM 0 0 0 0 1027.7 1027.7 0.0
25/05:00pm 14.7 13.2 7.0 60 3.8 NW 4 4 2 2 1027.4 1027.4 0.0
25/04:30pm 15.1 13.5 7.9 62 3.6 NNW 6 7 3 4 1027.3 1027.3 0.0
25/04:00pm 16.1 14.4 7.6 57 4.2 NNW 6 7 3 4 1027.2 1027.2 0.0
25/03:30pm 16.6 14.6 7.3 54 4.6 NNW 7 9 4 5 1027.1 1027.1 0.0
25/03:00pm 17.0 14.8 6.2 49 5.2 N 7 9 4 5 1026.9 1026.9 0.0
25/02:30pm 17.1 14.8 7.5 53 4.8 N 9 13 5 7 1027.0 1027.0 0.0
25/02:00pm 16.7 14.2 6.5 51 5.0 N 9 13 5 7 1027.2 1027.2 0.0
25/01:30pm 16.7 13.8 6.5 51 5.0 N 11 17 6 9 1027.5 1027.5 0.0
25/01:00pm 16.7 13.6 7.4 54 4.7 N 13 19 7 10 1027.7 1027.7 0.0
25/12:30pm 15.9 12.1 7.7 58 4.1 NNE 17 19 9 10 1028.0 1028.0 0.0
25/12:00pm 16.0 13.0 7.7 58 4.1 NNE 13 17 7 9 1028.3 1028.3 0.0
25/11:30am 15.2 11.8 7.7 61 3.7 NNE 15 17 8 9 1028.8 1028.8 0.0
25/11:00am 14.8 12.1 9.0 68 3.0 NNE 13 17 7 9 1029.4 1029.4 0.0
25/10:30am 15.0 12.9 8.3 64 3.3 N 9 15 5 8 1029.7 1029.7 0.0
25/10:00am 13.9 12.0 8.9 72 2.5 NE 9 13 5 7 1029.9 1029.9 0.0
25/09:30am 12.5 9.3 8.4 76 2.0 NNE 15 19 8 10 1029.9 1029.9 0.0
25/09:00am 11.1 9.0 8.1 82 1.5 NE 9 11 5 6 1029.8 1029.8 0.0
25/08:30am 9.2 6.3 6.5 83 1.2 ENE 11 13 6 7 1029.8 1029.8 0.0
25/08:00am 7.8 4.7 5.6 86 1.0 ENE 11 13 6 7 1029.6 1029.6 0.0
25/07:30am 7.3 4.1 5.1 86 1.0 ENE 11 13 6 7 1029.3 1029.3 0.0
25/07:00am 7.9 4.8 5.5 85 1.1 ENE 11 13 6 7 1029.4 1029.4 0.0
25/06:30am 8.2 5.2 5.8 85 1.1 E 11 11 6 6 1029.2 1029.2 0.0
25/06:00am 8.2 5.2 5.8 85 1.1 ENE 11 13 6 7 1029.0 1029.0 0.0
25/05:30am 8.8 5.9 6.4 85 1.1 ENE 11 13 6 7 1028.9 1028.9 0.0
25/05:00am 8.6 5.3 6.4 86 1.0 ENE 13 15 7 8 1028.9 1028.9 0.0
25/04:30am 8.6 5.3 6.6 87 0.9 ENE 13 15 7 8 1028.7 1028.7 0.0
25/04:00am 9.2 7.4 7.0 86 1.0 ENE 6 7 3 4 1028.8 1028.8 0.0
25/03:30am 9.1 7.1 7.1 87 0.9 ENE 7 9 4 5 1028.7 1028.7 0.0
25/03:00am 9.3 6.2 7.1 86 1.0 NE 13 15 7 8 1028.7 1028.7 0.0
25/02:30am 10.8 8.7 8.4 85 1.2 NNE 9 11 5 6 1028.8 1028.8 0.0
25/02:00am 10.3 8.2 8.1 86 1.1 NNE 9 11 5 6 1028.6 1028.6 0.0
25/01:30am 9.2 6.0 6.8 85 1.1 NNE 13 15 7 8 1028.5 1028.5 0.0
25/01:00am 9.8 7.8 7.1 83 1.3 N 7 9 4 5 1028.5 1028.5 0.0
25/12:30am 9.1 6.1 6.2 82 1.3 NE 11 15 6 8 1028.4 1028.4 0.0
25/12:00am 9.6 7.1 6.5 81 1.4 ENE 9 11 5 6 1028.4 1028.4 0.0
 
Date/Time
CST
Temp
°C
App
Temp
°C
Dew
Point
Rel
Hum
%
Delta-T
°C
Wind Press
QNH
hPa
Press
MSL
hPa
Rain
since 9 am
mm
Dir
 
Spd
km/h
Gust
km/h
Spd
kts
Gust
kts
24/11:30pm 9.7 6.8 6.6 81 1.4 ENE 11 13 6 7 1028.5 1028.5 0.0
24/11:00pm 9.7 6.4 6.6 81 1.4 NE 13 13 7 7 1028.7 1028.7 0.0
24/10:30pm 9.5 7.1 6.8 83 1.3 ENE 9 11 5 6 1028.6 1028.6 0.0
24/10:00pm 9.7 6.9 6.8 82 1.4 ENE 11 13 6 7 1028.9 1028.9 0.0
24/09:30pm 9.8 7.0 7.1 83 1.3 ENE 11 13 6 7 1028.9 1028.9 0.0
24/09:00pm 9.7 6.5 6.8 82 1.3 ENE 13 15 7 8 1029.2 1029.2 0.0
24/08:30pm 9.9 6.4 7.0 82 1.4 NE 15 17 8 9 1029.2 1029.2 0.0
24/08:00pm 10.2 7.1 7.1 81 1.5 ENE 13 13 7 7 1029.1 1029.1 0.0
24/07:30pm 10.5 7.8 7.2 80 1.6 ENE 11 11 6 6 1029.0 1029.0 0.0
24/07:00pm 10.8 8.2 7.9 82 1.4 NE 11 11 6 6 1029.0 1029.0 0.0
24/06:30pm 11.5 9.8 8.5 82 1.5 NE 7 9 4 5 1029.0 1029.0 0.0
24/06:00pm 11.3 9.2 8.2 81 1.5 NE 9 9 5 5 1028.7 1028.7 0.0
24/05:30pm 11.7 10.0 8.2 79 1.7 NNE 7 7 4 4 1028.5 1028.5 0.0
24/05:00pm 11.7 9.6 8.2 79 1.7 NNE 9 11 5 6 1028.2 1028.2 0.0
24/04:30pm 12.1 9.6 8.4 78 1.8 NE 11 13 6 7 1028.1 1028.1 0.0
24/04:00pm 12.6 10.5 8.3 75 2.1 NE 9 13 5 7 1028.0 1028.0 0.0
24/03:30pm 12.9 9.6 8.0 72 2.4 NNE 15 20 8 11 1028.1 1028.1 0.0
24/03:00pm 13.1 9.8 8.0 71 2.5 NNE 15 22 8 12 1028.1 1028.1 0.0
24/02:30pm 13.2 10.0 8.3 72 2.4 NNE 15 19 8 10 1028.2 1028.2 0.0
24/02:00pm 12.7 8.6 7.8 72 2.4 NNE 19 22 10 12 1028.1 1028.1 0.0
24/01:30pm 12.9 8.9 8.2 73 2.3 N 19 24 10 13 1028.4 1028.4 0.0

Other Formats:

Comma delimited format used in spreadsheet applications
http://www.bom.gov.au/fwo/IDS60801/IDS60801.94813.axf

JavaScript Object Notation format (JSON) in row-major order
http://www.bom.gov.au/fwo/IDS60801/IDS60801.94813.json